• Join FlightAware (Why Join?)
  • Login
  • US Flag 
08:34PM EDT


 

Airport Tracker/Info


-or-


 

Live Flight TrackerFlight Track Log ✈ DAL1092 ✈ 11-Aug-2013 ✈ KATL - KSYR

Flight Track Log - Related Links

Times and Time Zones

All times are in EDT time to prevent confusion due to time zone crossing. See the DAL1092 flight status page for this flight to view local times or setup timezone preferences in your user account.

Time Position Orientation Groundspeed Altitude Reporting Facility
EDT Latitude Longitude Course Direction KTS MPH feet Rate Location/Type
09:30AM 33.6500 -84.4667 North 165 190 2,500  Level Atlanta TRACON
09:31AM 33.6833 -84.5333 301° West 251 289 4,200 2,160 Climbing Atlanta TRACON
09:32AM 33.7333 -84.5833 320° Northwest 288 331 7,100 2,220 Climbing Atlanta TRACON
09:33AM 33.8487 -84.1820 320° Northwest  Level FlightAware Approximate
09:34AM 33.9513 -84.2667 North  Level FlightAware Approximate
09:34AM 33.8747 -84.5242 19° North 276 318 10,800  Level Atlanta Center
09:35AM 34.0793 -84.2667 North  Level FlightAware Approximate
09:35AM 33.9461 -84.4019 55° Northeast 342 394 13,200  Level Atlanta Center
09:36AM 34.2073 -84.2667 North  Level FlightAware Approximate
09:36AM 34.0400 -84.3647 18° North 345 397 15,300  Level Atlanta Center
09:37AM 34.1550 -84.3275 15° North 398 458 17,500 1,860 Climbing Atlanta Center
09:38AM 34.2636 -84.2900 16° North 405 466 19,100 1,680 Climbing Atlanta Center
09:39AM 34.3806 -84.2603 12° North 416 479 20,900 1,560 Climbing Atlanta Center
09:40AM 34.4975 -84.2328 11° North 423 487 22,300 1,440 Climbing Atlanta Center
09:41AM 34.6164 -84.2053 11° North 430 495 23,800 1,320 Climbing Atlanta Center
09:42AM 34.7356 -84.1803 10° North 430 495 25,000 1,140 Climbing Atlanta Center
09:43AM 34.8628 -84.1503 11° North 436 502 26,100 1,020 Climbing Atlanta Center
09:44AM 34.9900 -84.1200 11° North 451 519 27,100 900 Climbing Atlanta Center
09:45AM 35.1217 -84.0869 12° North 463 533 28,000 960 Climbing Atlanta Center
09:46AM 35.2508 -84.0567 11° North 469 540 29,100 1,020 Climbing Atlanta Center
09:47AM 35.3825 -84.0208 13° North 469 540 30,100 1,080 Climbing Atlanta Center
09:48AM 35.5139 -83.9903 11° North 469 540 31,300 1,080 Climbing Atlanta Center
09:49AM 35.6431 -83.9594 11° North 469 540 32,300 540 Climbing Atlanta Center
09:51AM 35.7847 -83.9163 11° North  Level FlightAware Approximate
09:51AM 35.9058 -83.8875 11° North 474 545 33,000  Level Atlanta Center
09:52AM 36.0289 -83.8206 24° Northeast 467 537 33,000 300 Level Atlanta Center
09:53AM 36.1456 -83.7431 28° Northeast 472 543 33,600 840 Climbing Atlanta Center
09:54AM 36.2664 -83.6678 27° Northeast 478 550 34,700 840 Climbing Atlanta Center
09:56AM 36.4272 -83.5619 28° Northeast 485 558 35,600 660 Climbing Indianapolis Center
09:57AM 36.5522 -83.4850 26° Northeast 490 564 36,300 660 Climbing Indianapolis Center
09:58AM 36.6708 -83.3992 30° Northeast 490 564 37,000 300 Climbing Indianapolis Center
09:59AM 36.7786 -83.2964 37° Northeast 484 557 37,000  Level Indianapolis Center
10:00AM 36.8881 -83.1933 37° Northeast 489 563 37,000  Level Indianapolis Center
10:01AM 37.0006 -83.0894 36° Northeast 494 568 37,000  Level Indianapolis Center
10:02AM 37.1119 -82.9828 37° Northeast 493 567 37,000  Level Indianapolis Center
10:03AM 37.2211 -82.8764 38° Northeast 491 565 37,000  Level Indianapolis Center
10:04AM 37.3425 -82.7581 38° Northeast 474 545 37,000  Level Indianapolis Center
10:05AM 37.4481 -82.6575 37° Northeast 475 547 37,000  Level Indianapolis Center
10:06AM 37.5553 -82.5542 37° Northeast 481 554 37,000  Level Indianapolis Center
10:07AM 37.6611 -82.4511 38° Northeast 479 551 37,000  Level Indianapolis Center
10:08AM 37.7669 -82.3481 38° Northeast 482 555 37,000  Level Indianapolis Center
10:09AM 37.8739 -82.2419 38° Northeast 489 563 37,000  Level Indianapolis Center
10:10AM 37.9778 -82.1397 38° Northeast 485 558 37,000  Level Indianapolis Center
10:11AM 38.1064 -82.0122 38° Northeast 489 563 37,000  Level Indianapolis Center
10:12AM 38.2125 -81.9072 38° Northeast 485 558 37,000  Level Indianapolis Center
10:13AM 38.3178 -81.8019 38° Northeast 483 556 37,000  Level Indianapolis Center
10:14AM 38.4142 -81.6775 45° Northeast 499 574 37,000  Level Indianapolis Center
10:15AM 38.5069 -81.5433 49° Northeast 507 583 37,000  Level Indianapolis Center
10:16AM 38.6172 -81.3836 49° Northeast 512 589 37,000  Level Indianapolis Center
10:17AM 38.7094 -81.2525 48° Northeast 505 581 37,000  Level Indianapolis Center
10:18AM 38.8008 -81.1183 49° Northeast 504 580 37,000  Level Indianapolis Center
10:19AM 38.8936 -80.9839 48° Northeast 504 580 37,000  Level Indianapolis Center
10:20AM 38.9869 -80.8469 49° Northeast 508 585 37,000  Level Indianapolis Center
10:22AM 39.0797 -80.7097 49° Northeast 509 586 37,000  Level Indianapolis Center
10:23AM 39.1933 -80.5428 49° Northeast 516 594 37,000  Level Indianapolis Center
10:24AM 39.2906 -80.4083 47° Northeast 515 593 37,000  Level Indianapolis Center
10:25AM 39.4058 -80.3092 34° Northeast 500 575 37,000  Level Indianapolis Center
10:26AM 39.5233 -80.2119 33° Northeast 499 574 37,000  Level Indianapolis Center
10:27AM 39.6400 -80.1156 32° Northeast 499 574 37,000  Level Indianapolis Center
10:28AM 39.7589 -80.0194 32° Northeast 501 577 37,000  Level Indianapolis Center
10:29AM 39.8764 -79.9194 33° Northeast 503 579 37,000  Level Indianapolis Center
10:30AM 40.0178 -79.8025 32° Northeast 503 579 37,000  Level Indianapolis Center
10:31AM 40.1739 -79.6728 32° Northeast 500 575 37,000  Level Cleveland Center
10:32AM 40.2817 -79.5842 32° Northeast 505 581 37,000  Level Cleveland Center
10:33AM 40.3956 -79.4844 34° Northeast 499 574 37,000  Level Cleveland Center
10:34AM 40.5133 -79.3842 33° Northeast 499 574 37,000  Level Cleveland Center
10:35AM 40.6331 -79.2836 33° Northeast 504 580 37,000  Level Cleveland Center
10:36AM 40.7486 -79.1825 34° Northeast 504 580 37,000 -480 Level Cleveland Center
10:37AM 40.8661 -79.0811 33° Northeast 504 580 36,100 -960 Descending Cleveland Center
10:38AM 40.9836 -78.9794 33° Northeast 504 580 35,100 -1,020 Descending Cleveland Center
10:39AM 41.1008 -78.8775 33° Northeast 504 580 34,100 -600 Descending Cleveland Center
10:40AM 41.2183 -78.7778 33° Northeast 504 580 34,000 -60 Descending Cleveland Center
10:41AM 41.3356 -78.6750 33° Northeast 504 580 34,000  Level Cleveland Center
10:42AM 41.4647 -78.5603 34° Northeast 504 580 34,000 -300 Level Cleveland Center
10:43AM 41.5775 -78.4597 34° Northeast 499 574 33,400 -840 Descending Cleveland Center
10:44AM 41.6944 -78.3556 34° Northeast 499 574 32,400 -1,020 Descending Cleveland Center
10:45AM 41.8050 -78.2544 34° Northeast 499 574 31,400 -960 Descending Cleveland Center
10:46AM 41.9197 -78.1553 33° Northeast 494 568 30,500 -960 Descending Cleveland Center
10:47AM 42.0322 -78.0558 33° Northeast 489 563 29,500 -1,020 Descending Cleveland Center
10:48AM 42.1381 -77.9397 39° Northeast 489 563 28,500 -1,500 Descending Cleveland Center
10:49AM 42.2350 -77.8039 46° Northeast 489 563 26,600 -1,800 Descending Cleveland Center
10:50AM 42.3297 -77.6733 46° Northeast 489 563 25,000 -840 Descending Cleveland Center
10:51AM 42.4222 -77.5425 46° Northeast 482 555 25,000 -480 Level Cleveland Center
10:52AM 42.5167 -77.4111 46° Northeast 475 547 24,100 -1,620 Descending Cleveland Center
10:53AM 42.5989 -77.2969 46° Northeast 475 547 21,800 -2,400 Descending Cleveland Center
10:54AM 42.6872 -77.1764 45° Northeast 464 534 19,400 -2,220 Descending Cleveland Center
10:55AM 42.7692 -77.0589 46° Northeast 441 507 17,400 -2,160 Descending Cleveland Center
10:56AM 42.8272 -76.9706 48° Northeast 408 470 15,700 -2,280 Descending Boston Center
10:57AM 42.8867 -76.8358 59° Northeast 375 432 13,500 -1,980 Descending Boston Center
10:58AM 42.9325 -76.7286 60° Northeast 316 364 11,800 -2,040 Descending Boston Center
10:59AM 42.9800 -76.6267 57° Northeast 305 351 9,400 -1,920 Descending Boston Center
11:00AM 42.9883 -76.5108 84° East 303 349 7,900 -1,800 Descending Boston Center
11:01AM 42.9964 -76.4036 84° East 288 331 5,800 -1,740 Descending Boston Center
11:02AM 43.0061 -76.2992 83° East 280 322 4,400 -1,200 Descending Boston Center
11:03AM 43.0181 -76.1889 82° East 268 308 3,500 -600 Descending Boston Center
11:04AM 43.0253 -76.0956 84° East 231 266 3,200 -300 Descending Boston Center
11:05AM 43.0383 -76.0197 77° East 202 232 2,900 -540 Descending Boston Center
11:06AM 43.0847 -75.9969 20° North 170 196 2,200 -840 Descending Boston Center
11:07AM 43.1106 -76.0411 309° West 142 163 1,300 -900 Descending Boston Center